createdAt,value
2018-06-29T00:00:04.119Z,19.37
2018-06-29T00:01:04.094Z,19.33
2018-06-29T00:02:04.048Z,19.24
2018-06-29T00:03:03.980Z,19.30
2018-06-29T00:04:03.933Z,19.27
2018-06-29T00:05:03.885Z,19.16
2018-06-29T00:06:03.846Z,19.30
2018-06-29T00:07:03.824Z,19.29
2018-06-29T00:08:03.749Z,19.23
2018-06-29T00:09:03.704Z,19.24
2018-06-29T00:10:03.656Z,19.12
2018-06-29T00:11:03.609Z,19.16
2018-06-29T00:12:03.585Z,19.09
2018-06-29T00:13:03.524Z,19.09
2018-06-29T00:14:03.472Z,19.08
2018-06-29T00:15:03.441Z,19.09
2018-06-29T00:16:03.384Z,18.99
2018-06-29T00:17:03.358Z,19.04
2018-06-29T00:18:03.287Z,18.98
2018-06-29T00:19:03.246Z,18.93
2018-06-29T00:20:03.203Z,18.86
2018-06-29T00:21:03.162Z,18.81
2018-06-29T00:22:03.132Z,18.85
2018-06-29T00:23:03.066Z,18.81
2018-06-29T00:24:03.016Z,18.81
2018-06-29T00:25:02.970Z,18.78
2018-06-29T00:26:02.920Z,18.78
2018-06-29T00:27:02.896Z,18.78
2018-06-29T00:28:02.828Z,18.78
2018-06-29T00:29:02.781Z,18.67
2018-06-29T00:30:02.739Z,18.75
2018-06-29T00:31:02.692Z,18.70
2018-06-29T00:32:02.669Z,18.73
2018-06-29T00:33:02.600Z,18.70
2018-06-29T00:34:02.551Z,18.78
2018-06-29T00:35:02.505Z,18.68
2018-06-29T00:36:02.458Z,18.75
2018-06-29T00:37:02.439Z,18.77
2018-06-29T00:38:02.366Z,18.74
2018-06-29T00:39:02.319Z,18.66
2018-06-29T00:40:02.271Z,18.66
2018-06-29T00:41:02.226Z,18.62
2018-06-29T00:42:02.203Z,18.55
2018-06-29T00:43:02.133Z,18.58
2018-06-29T00:44:02.092Z,18.59
2018-06-29T00:45:02.044Z,18.58
2018-06-29T00:46:02.076Z,18.49
2018-06-29T00:47:01.975Z,18.58
2018-06-29T00:48:01.903Z,18.43
2018-06-29T00:49:01.860Z,18.48
2018-06-29T00:50:01.813Z,18.48
2018-06-29T00:51:01.767Z,18.44
2018-06-29T00:52:01.743Z,18.48
2018-06-29T00:53:01.671Z,18.46
2018-06-29T00:54:01.630Z,18.43
2018-06-29T00:55:01.578Z,18.49
2018-06-29T00:56:01.537Z,18.44
2018-06-29T00:57:01.513Z,18.48
2018-06-29T00:58:01.439Z,18.48
2018-06-29T00:59:01.399Z,18.40
2018-06-29T01:00:01.350Z,18.41
2018-06-29T01:01:01.300Z,18.40
2018-06-29T01:02:01.285Z,18.44
2018-06-29T01:03:01.212Z,18.38
2018-06-29T01:04:01.163Z,18.49
2018-06-29T01:05:01.119Z,18.48
2018-06-29T01:06:01.068Z,18.50
2018-06-29T01:07:01.046Z,18.46
2018-06-29T01:08:00.976Z,18.34
2018-06-29T01:09:00.942Z,18.41
2018-06-29T01:10:00.886Z,18.34
2018-06-29T01:11:00.850Z,18.41
2018-06-29T01:12:00.816Z,18.41
2018-06-29T01:13:00.748Z,18.40
2018-06-29T01:14:00.699Z,18.48
2018-06-29T01:15:00.649Z,18.48
2018-06-29T01:16:00.606Z,18.48
2018-06-29T01:17:00.587Z,18.44
2018-06-29T01:18:00.513Z,18.44
2018-06-29T01:19:00.469Z,18.49
2018-06-29T01:20:00.419Z,18.48
2018-06-29T01:21:00.379Z,18.43
2018-06-29T01:22:00.352Z,18.37
2018-06-29T01:23:00.280Z,18.46
2018-06-29T01:24:00.235Z,18.40
2018-06-29T01:25:00.186Z,18.40
2018-06-29T01:26:00.148Z,18.35
2018-06-29T01:27:00.121Z,18.37
2018-06-29T01:28:00.055Z,18.25
2018-06-29T01:29:00.007Z,18.18
2018-06-29T01:29:59.958Z,18.16
2018-06-29T01:30:59.911Z,18.13
2018-06-29T01:31:59.909Z,18.04
2018-06-29T01:32:59.818Z,18.04
2018-06-29T01:33:59.769Z,18.03
2018-06-29T01:34:59.725Z,18.03
2018-06-29T01:35:59.679Z,17.98
2018-06-29T01:36:59.632Z,18.00
2018-06-29T01:37:59.608Z,17.98
2018-06-29T01:38:59.538Z,18.00
2018-06-29T01:39:59.496Z,18.04
2018-06-29T01:40:59.444Z,17.93
2018-06-29T01:41:59.400Z,18.00
2018-06-29T01:42:59.377Z,18.03
2018-06-29T01:43:59.306Z,17.91
2018-06-29T01:44:59.261Z,18.01
2018-06-29T01:45:59.216Z,18.03
2018-06-29T01:46:59.169Z,18.05
2018-06-29T01:47:59.153Z,17.98
2018-06-29T01:48:59.076Z,17.98
2018-06-29T01:49:59.035Z,17.91
2018-06-29T01:50:58.980Z,17.94
2018-06-29T01:51:58.935Z,17.89
2018-06-29T01:52:58.916Z,17.97
2018-06-29T01:53:58.860Z,18.00
2018-06-29T01:54:58.792Z,17.86
2018-06-29T01:55:58.750Z,17.85
2018-06-29T01:56:58.706Z,17.91
2018-06-29T01:57:58.679Z,17.88
2018-06-29T01:58:58.612Z,17.89
2018-06-29T01:59:58.563Z,17.93
2018-06-29T02:00:58.522Z,17.80
2018-06-29T02:01:58.469Z,17.64
2018-06-29T02:02:58.464Z,17.68
2018-06-29T02:03:58.375Z,17.54
2018-06-29T02:04:58.330Z,17.64
2018-06-29T02:05:58.280Z,17.67
2018-06-29T02:06:58.237Z,17.59
2018-06-29T02:07:58.278Z,17.54
2018-06-29T02:08:58.143Z,17.59
2018-06-29T02:09:58.097Z,17.53
2018-06-29T02:10:58.048Z,17.54
2018-06-29T02:11:58.001Z,17.56
2018-06-29T02:12:57.980Z,17.56
2018-06-29T02:13:57.909Z,17.63
2018-06-29T02:14:57.861Z,17.56
2018-06-29T02:15:57.817Z,17.65
2018-06-29T02:16:57.769Z,17.59
2018-06-29T02:17:57.748Z,17.56
2018-06-29T02:18:57.676Z,17.54
2018-06-29T02:19:57.635Z,17.54
2018-06-29T02:20:57.592Z,17.59
2018-06-29T02:21:57.535Z,17.44
2018-06-29T02:22:57.511Z,17.48
2018-06-29T02:23:57.461Z,17.44
2018-06-29T02:24:57.396Z,17.41
2018-06-29T02:25:57.348Z,17.31
2018-06-29T02:26:57.303Z,17.37
2018-06-29T02:27:57.280Z,17.30
2018-06-29T02:28:57.210Z,17.31
2018-06-29T02:29:57.164Z,17.26
2018-06-29T02:30:57.121Z,17.30
2018-06-29T02:31:57.068Z,17.16
2018-06-29T02:32:57.050Z,17.23
2018-06-29T02:33:56.977Z,17.19
2018-06-29T02:34:56.932Z,17.16
2018-06-29T02:35:56.896Z,17.20
2018-06-29T02:36:56.835Z,17.16
2018-06-29T02:37:56.822Z,17.11
2018-06-29T02:38:56.745Z,17.16
2018-06-29T02:39:56.696Z,17.09
2018-06-29T02:40:56.654Z,17.06
2018-06-29T02:41:56.602Z,17.01
2018-06-29T02:42:56.582Z,16.99
2018-06-29T02:43:56.508Z,16.91
2018-06-29T02:44:56.463Z,16.91
2018-06-29T02:45:56.418Z,16.96
2018-06-29T02:46:56.367Z,16.86
2018-06-29T02:47:56.344Z,16.93
2018-06-29T02:48:56.275Z,16.71
2018-06-29T02:49:56.229Z,16.66
2018-06-29T02:50:56.182Z,16.62
2018-06-29T02:51:56.131Z,16.54
2018-06-29T02:52:56.109Z,16.46
2018-06-29T02:53:56.044Z,16.54
2018-06-29T02:54:55.996Z,16.53
2018-06-29T02:55:55.947Z,16.49
2018-06-29T02:56:55.899Z,16.47
2018-06-29T02:57:55.876Z,16.44
2018-06-29T02:58:55.806Z,16.47
2018-06-29T02:59:55.760Z,16.47
2018-06-29T03:00:55.712Z,16.51
2018-06-29T03:01:55.666Z,16.49
2018-06-29T03:02:55.648Z,16.43
2018-06-29T03:03:55.577Z,16.44
2018-06-29T03:04:55.524Z,16.49
2018-06-29T03:05:55.477Z,16.41
2018-06-29T03:06:55.432Z,16.39
2018-06-29T03:07:55.383Z,16.34
2018-06-29T03:08:55.363Z,16.41
2018-06-29T03:09:55.289Z,16.53
2018-06-29T03:10:55.245Z,16.50
2018-06-29T03:11:55.195Z,16.39
2018-06-29T03:12:55.144Z,16.41
2018-06-29T03:13:55.123Z,16.43
2018-06-29T03:14:55.052Z,16.46
2018-06-29T03:15:55.005Z,16.50
2018-06-29T03:16:54.960Z,16.49
2018-06-29T03:17:54.919Z,16.57
2018-06-29T03:18:54.885Z,16.65
2018-06-29T03:19:54.817Z,16.62
2018-06-29T03:20:54.765Z,16.72
2018-06-29T03:21:54.723Z,16.71
2018-06-29T03:22:54.675Z,16.75
2018-06-29T03:23:54.653Z,16.69
2018-06-29T03:24:54.579Z,16.75
2018-06-29T03:25:54.534Z,16.71
2018-06-29T03:26:54.486Z,16.76
2018-06-29T03:27:54.439Z,16.80
2018-06-29T03:28:54.418Z,16.83
2018-06-29T03:29:54.345Z,16.79
2018-06-29T03:30:54.300Z,16.86
2018-06-29T03:31:54.251Z,16.75
2018-06-29T03:32:54.242Z,16.75
2018-06-29T03:33:54.188Z,16.76
2018-06-29T03:34:54.107Z,16.86
2018-06-29T03:35:54.061Z,16.80
2018-06-29T03:36:54.016Z,16.79
2018-06-29T03:37:53.968Z,16.74
2018-06-29T03:38:53.942Z,16.74
2018-06-29T03:39:53.874Z,16.65
2018-06-29T03:40:53.832Z,16.65
2018-06-29T03:41:53.777Z,16.62
2018-06-29T03:42:53.736Z,16.62
2018-06-29T03:43:53.706Z,16.62
2018-06-29T03:44:53.638Z,16.57
2018-06-29T03:45:53.589Z,16.53
2018-06-29T03:46:53.543Z,16.49
2018-06-29T03:47:53.499Z,16.57
2018-06-29T03:48:53.475Z,16.47
2018-06-29T03:49:53.403Z,16.51
2018-06-29T03:50:53.361Z,16.47
2018-06-29T03:51:53.311Z,16.51
2018-06-29T03:52:53.265Z,16.54
2018-06-29T03:53:53.237Z,16.47
2018-06-29T03:54:53.162Z,16.47
2018-06-29T03:55:53.124Z,16.46
2018-06-29T03:56:53.072Z,16.47
2018-06-29T03:57:53.026Z,16.54
2018-06-29T03:58:53.001Z,16.56
2018-06-29T03:59:52.930Z,16.53
2018-06-29T04:00:52.885Z,16.57
2018-06-29T04:01:52.836Z,16.54
2018-06-29T04:02:52.788Z,16.53
2018-06-29T04:03:52.767Z,16.54
2018-06-29T04:04:52.697Z,16.56
2018-06-29T04:05:52.647Z,16.56
2018-06-29T04:06:52.604Z,16.57
2018-06-29T04:07:52.559Z,16.62
2018-06-29T04:08:52.537Z,16.59
2018-06-29T04:09:52.460Z,16.64
2018-06-29T04:10:52.413Z,16.66
2018-06-29T04:11:52.366Z,16.64
2018-06-29T04:12:52.332Z,16.74
2018-06-29T04:13:52.300Z,16.72
2018-06-29T04:14:52.225Z,16.71
2018-06-29T04:15:52.178Z,16.66
2018-06-29T04:16:52.132Z,16.72
2018-06-29T04:17:52.089Z,16.84
2018-06-29T04:18:52.060Z,16.84
2018-06-29T04:19:51.988Z,16.98
2018-06-29T04:20:51.945Z,16.99
2018-06-29T04:21:51.901Z,16.91
2018-06-29T04:22:51.852Z,16.98
2018-06-29T04:23:51.830Z,17.06
2018-06-29T04:24:51.762Z,17.12
2018-06-29T04:25:51.712Z,17.20
2018-06-29T04:26:51.674Z,17.26
2018-06-29T04:27:51.621Z,17.33
2018-06-29T04:28:51.571Z,17.38
2018-06-29T04:29:51.545Z,17.49
2018-06-29T04:30:51.477Z,17.59
2018-06-29T04:31:51.433Z,17.71
2018-06-29T04:32:51.446Z,17.78
2018-06-29T04:33:51.339Z,17.88
2018-06-29T04:34:51.316Z,17.93
2018-06-29T04:35:51.252Z,17.95
2018-06-29T04:36:51.195Z,18.03
2018-06-29T04:37:51.158Z,18.04
2018-06-29T04:38:51.106Z,18.12
2018-06-29T04:39:51.079Z,18.19
2018-06-29T04:40:51.012Z,18.25
2018-06-29T04:41:50.966Z,18.30
2018-06-29T04:42:50.916Z,18.37
2018-06-29T04:43:50.872Z,18.33
2018-06-29T04:44:50.854Z,18.46
2018-06-29T04:45:50.781Z,18.46
2018-06-29T04:46:50.738Z,18.62
2018-06-29T04:47:50.691Z,18.56
2018-06-29T04:48:50.646Z,18.60
2018-06-29T04:49:50.620Z,18.67
2018-06-29T04:50:50.552Z,18.77
2018-06-29T04:51:50.505Z,18.83
2018-06-29T04:52:50.463Z,18.86
2018-06-29T04:53:50.424Z,18.95
2018-06-29T04:54:50.394Z,18.98
2018-06-29T04:55:50.321Z,19.07
2018-06-29T04:56:50.278Z,19.12
2018-06-29T04:57:50.232Z,19.19
2018-06-29T04:58:50.186Z,19.18
2018-06-29T04:59:50.161Z,19.27
2018-06-29T05:00:50.135Z,19.37
2018-06-29T05:01:50.049Z,19.39
2018-06-29T05:02:50.007Z,19.46
2018-06-29T05:03:49.959Z,19.59
2018-06-29T05:04:49.939Z,19.69
2018-06-29T05:05:49.865Z,19.70
2018-06-29T05:06:49.826Z,19.79
2018-06-29T05:07:49.778Z,19.86
2018-06-29T05:08:49.737Z,19.88
2018-06-29T05:09:49.712Z,19.86
2018-06-29T05:10:49.645Z,19.91
2018-06-29T05:11:49.597Z,19.99
2018-06-29T05:12:49.553Z,20.09
2018-06-29T05:13:49.508Z,20.03
2018-06-29T05:14:49.483Z,20.19
2018-06-29T05:15:49.419Z,20.18
2018-06-29T05:16:49.370Z,20.25
2018-06-29T05:17:49.328Z,20.26
2018-06-29T05:18:49.281Z,20.33
2018-06-29T05:19:49.257Z,20.31
2018-06-29T05:20:49.187Z,20.21
2018-06-29T05:21:49.146Z,20.10
2018-06-29T05:22:49.099Z,20.03
2018-06-29T05:23:49.058Z,20.03
2018-06-29T05:24:49.035Z,20.01
2018-06-29T05:25:48.971Z,20.15
2018-06-29T05:26:48.919Z,20.14
2018-06-29T05:27:48.883Z,20.15
2018-06-29T05:28:48.838Z,20.29
2018-06-29T05:29:48.819Z,20.28
2018-06-29T05:30:48.744Z,20.39
2018-06-29T05:31:48.702Z,20.34
2018-06-29T05:32:48.656Z,20.29
2018-06-29T05:33:48.612Z,20.26
2018-06-29T05:34:56.121Z,20.25
2018-06-29T05:35:48.535Z,20.29
2018-06-29T05:36:48.478Z,20.33
2018-06-29T05:37:48.433Z,20.29
2018-06-29T05:38:48.389Z,20.33
2018-06-29T05:39:48.366Z,20.41
2018-06-29T05:40:48.304Z,20.62
2018-06-29T05:41:48.311Z,20.63
2018-06-29T05:42:48.215Z,20.71
2018-06-29T05:43:48.163Z,20.92
2018-06-29T05:44:48.126Z,20.93
2018-06-29T05:45:48.099Z,21.10
2018-06-29T05:46:48.036Z,21.18
2018-06-29T05:47:47.990Z,21.21
2018-06-29T05:48:47.948Z,21.15
2018-06-29T05:49:47.896Z,21.12
2018-06-29T05:50:47.881Z,21.10
2018-06-29T05:51:47.813Z,21.18
2018-06-29T05:52:47.777Z,21.20
2018-06-29T05:53:47.722Z,21.32
2018-06-29T05:54:47.682Z,21.30
2018-06-29T05:55:47.659Z,21.35
2018-06-29T05:56:47.593Z,21.36
2018-06-29T05:57:47.546Z,21.32
2018-06-29T05:58:47.504Z,21.15
2018-06-29T05:59:47.457Z,21.08
2018-06-29T06:00:47.439Z,21.03
2018-06-29T06:01:47.369Z,21.15
2018-06-29T06:02:47.329Z,21.27
2018-06-29T06:03:47.279Z,20.77
2018-06-29T06:04:47.266Z,20.62
2018-06-29T06:05:47.218Z,20.53
2018-06-29T06:06:47.155Z,20.59
2018-06-29T06:07:47.104Z,20.57
2018-06-29T06:08:47.065Z,20.77
2018-06-29T06:09:47.013Z,20.93
2018-06-29T06:10:46.996Z,21.00
2018-06-29T06:11:46.927Z,21.27
2018-06-29T06:12:46.889Z,21.32
2018-06-29T06:13:46.839Z,21.33
2018-06-29T06:14:46.801Z,21.32
2018-06-29T06:15:46.778Z,21.35
2018-06-29T06:16:46.714Z,21.51
2018-06-29T06:17:46.660Z,21.63
2018-06-29T06:18:46.624Z,21.73
2018-06-29T06:19:46.576Z,21.74
2018-06-29T06:20:46.559Z,21.73
2018-06-29T06:21:46.493Z,21.88
2018-06-29T06:22:46.446Z,21.88
2018-06-29T06:23:46.407Z,21.92
2018-06-29T06:24:46.361Z,21.95
2018-06-29T06:25:46.341Z,21.93
2018-06-29T06:26:46.273Z,21.81
2018-06-29T06:27:46.227Z,21.88
2018-06-29T06:28:46.182Z,21.79
2018-06-29T06:29:46.137Z,21.69
2018-06-29T06:30:46.124Z,21.70
2018-06-29T06:31:46.052Z,21.79
2018-06-29T06:32:46.010Z,21.84
2018-06-29T06:33:45.966Z,22.07
2018-06-29T06:34:45.921Z,21.89
2018-06-29T06:35:45.905Z,21.96
2018-06-29T06:36:45.833Z,21.99
2018-06-29T06:37:45.790Z,22.04
2018-06-29T06:38:45.746Z,22.05
2018-06-29T06:39:45.701Z,22.14
2018-06-29T06:40:45.684Z,22.17
2018-06-29T06:41:45.616Z,22.13
2018-06-29T06:42:45.576Z,22.03
2018-06-29T06:43:45.532Z,21.99
2018-06-29T06:44:45.491Z,22.08
2018-06-29T06:45:45.470Z,22.04
2018-06-29T06:46:45.399Z,22.17
2018-06-29T06:47:45.357Z,22.38
2018-06-29T06:48:45.311Z,22.48
2018-06-29T06:49:45.276Z,22.56
2018-06-29T06:50:45.253Z,22.72
2018-06-29T06:51:45.185Z,22.85
2018-06-29T06:52:45.143Z,23.00
2018-06-29T06:53:45.173Z,23.00
2018-06-29T06:54:45.061Z,23.09
2018-06-29T06:55:45.036Z,23.09
2018-06-29T06:56:44.970Z,22.96
2018-06-29T06:57:44.931Z,23.15
2018-06-29T06:58:44.885Z,23.00
2018-06-29T06:59:44.845Z,23.00
2018-06-29T07:00:44.819Z,23.10
2018-06-29T07:01:44.756Z,23.07
2018-06-29T07:02:44.712Z,23.14
2018-06-29T07:03:44.669Z,23.17
2018-06-29T07:04:44.627Z,23.27
2018-06-29T07:05:44.609Z,23.31
2018-06-29T07:06:44.546Z,23.36
2018-06-29T07:07:44.499Z,23.17
2018-06-29T07:08:44.456Z,23.10
2018-06-29T07:09:44.419Z,23.03
2018-06-29T07:10:44.399Z,23.22
2018-06-29T07:11:44.330Z,23.31
2018-06-29T07:12:44.298Z,23.46
2018-06-29T07:13:44.247Z,23.53
2018-06-29T07:14:44.201Z,23.74
2018-06-29T07:15:44.200Z,23.81
2018-06-29T07:16:44.119Z,24.05
2018-06-29T07:17:44.080Z,24.20
2018-06-29T07:18:44.036Z,24.35
2018-06-29T07:19:43.987Z,24.44
2018-06-29T07:20:43.947Z,24.57
2018-06-29T07:21:43.930Z,24.69
2018-06-29T07:22:43.868Z,24.85
2018-06-29T07:23:43.824Z,24.98
2018-06-29T07:24:43.782Z,25.08
2018-06-29T07:25:43.736Z,25.07
2018-06-29T07:26:43.718Z,25.13
2018-06-29T07:27:43.651Z,25.15
2018-06-29T07:28:43.609Z,25.11
2018-06-29T07:29:43.567Z,25.18
2018-06-29T07:30:43.530Z,25.30
2018-06-29T07:31:43.514Z,25.29
2018-06-29T07:32:43.444Z,25.22
2018-06-29T07:33:43.404Z,25.22
2018-06-29T07:34:43.356Z,25.29
2018-06-29T07:35:43.316Z,25.29
2018-06-29T07:36:43.299Z,25.10
2018-06-29T07:37:43.234Z,24.82
2018-06-29T07:38:43.246Z,24.67
2018-06-29T07:39:43.151Z,24.83
2018-06-29T07:40:43.109Z,24.83
2018-06-29T07:41:43.094Z,24.93
2018-06-29T07:42:43.028Z,24.93
2018-06-29T07:43:42.987Z,25.04
2018-06-29T07:44:42.946Z,25.03
2018-06-29T07:45:42.902Z,25.03
2018-06-29T07:46:42.911Z,24.89
2018-06-29T07:47:42.822Z,24.98
2018-06-29T07:48:42.784Z,25.03
2018-06-29T07:49:42.740Z,24.95
2018-06-29T07:50:42.728Z,25.06
2018-06-29T07:51:42.678Z,25.07
2018-06-29T07:52:42.622Z,25.10
2018-06-29T07:53:42.570Z,25.26
2018-06-29T07:54:42.528Z,25.33
2018-06-29T07:55:42.489Z,25.51
2018-06-29T07:56:42.472Z,25.56
2018-06-29T07:57:42.408Z,25.62
2018-06-29T07:58:42.423Z,25.75
2018-06-29T07:59:42.320Z,25.78
2018-06-29T08:00:42.281Z,25.96
2018-06-29T08:01:42.263Z,26.10
2018-06-29T08:02:42.233Z,26.18
2018-06-29T08:03:42.162Z,26.23
2018-06-29T08:04:42.118Z,26.23
2018-06-29T08:05:42.076Z,26.20
2018-06-29T08:06:42.055Z,26.23
2018-06-29T08:07:41.993Z,26.23
2018-06-29T08:08:41.961Z,26.40
2018-06-29T08:09:41.913Z,26.34
2018-06-29T08:10:41.901Z,26.33
2018-06-29T08:11:41.852Z,26.19
2018-06-29T08:12:41.793Z,25.96
2018-06-29T08:13:41.746Z,25.84
2018-06-29T08:14:41.713Z,25.66
2018-06-29T08:15:41.667Z,25.35
2018-06-29T08:16:41.648Z,25.18
2018-06-29T08:17:41.587Z,25.23
2018-06-29T08:18:41.544Z,25.29
2018-06-29T08:19:41.500Z,25.35
2018-06-29T08:20:41.461Z,25.40
2018-06-29T08:21:41.457Z,25.37
2018-06-29T08:22:41.379Z,25.29
2018-06-29T08:23:41.337Z,25.23
2018-06-29T08:24:41.299Z,25.20
2018-06-29T08:25:41.261Z,25.06
2018-06-29T08:26:41.243Z,25.06
2018-06-29T08:29:12.678Z,25.20
2018-06-29T08:30:12.633Z,25.26
2018-06-29T08:31:12.588Z,25.41
2018-06-29T08:32:12.570Z,25.58
2018-06-29T08:33:12.511Z,25.75
2018-06-29T08:34:12.468Z,25.92
2018-06-29T08:35:12.427Z,26.02
2018-06-29T08:36:12.389Z,26.15
2018-06-29T08:37:12.362Z,26.12
2018-06-29T08:38:12.300Z,26.12
2018-06-29T08:39:12.259Z,26.03
2018-06-29T08:40:12.218Z,25.96
2018-06-29T08:41:12.178Z,25.67
2018-06-29T08:42:12.160Z,25.53
2018-06-29T08:43:12.100Z,25.58
2018-06-29T08:44:12.060Z,25.44
2018-06-29T08:45:12.013Z,25.45
2018-06-29T08:46:11.973Z,25.41
2018-06-29T08:47:11.956Z,25.37
2018-06-29T08:48:11.888Z,25.43
2018-06-29T08:49:11.847Z,25.38
2018-06-29T08:50:11.808Z,25.55
2018-06-29T08:51:11.770Z,25.56
2018-06-29T08:52:11.751Z,25.55
2018-06-29T08:53:11.684Z,25.50
2018-06-29T08:54:11.641Z,25.53
2018-06-29T08:55:11.600Z,25.67
2018-06-29T08:56:11.559Z,25.73
2018-06-29T08:57:11.539Z,25.81
2018-06-29T08:58:11.476Z,25.75
2018-06-29T08:59:11.437Z,25.70
2018-06-29T09:00:11.390Z,25.78
2018-06-29T09:01:11.356Z,25.77
2018-06-29T09:02:11.334Z,25.77
2018-06-29T09:03:11.269Z,25.78
2018-06-29T09:04:11.226Z,25.63
2018-06-29T09:05:11.188Z,25.66
2018-06-29T09:06:11.154Z,25.74
2018-06-29T09:07:11.130Z,25.67
2018-06-29T09:08:11.062Z,25.50
2018-06-29T09:09:11.027Z,25.33
2018-06-29T09:10:10.980Z,25.33
2018-06-29T09:11:10.941Z,25.44
2018-06-29T09:12:10.923Z,25.51
2018-06-29T09:13:10.858Z,25.55
2018-06-29T09:14:10.813Z,25.70
2018-06-29T09:15:10.773Z,25.66
2018-06-29T09:16:10.733Z,25.74
2018-06-29T09:17:10.715Z,25.78
2018-06-29T09:18:10.653Z,25.74
2018-06-29T09:19:10.712Z,25.77
2018-06-29T09:20:10.572Z,25.90
2018-06-29T09:21:10.527Z,25.97
2018-06-29T09:22:10.516Z,25.99
2018-06-29T09:23:10.449Z,26.10
2018-06-29T09:24:10.403Z,26.22
2018-06-29T09:25:10.361Z,26.30
2018-06-29T09:26:10.321Z,26.18
2018-06-29T09:27:10.321Z,26.16
2018-06-29T09:28:10.247Z,26.20
2018-06-29T09:29:10.196Z,26.28
2018-06-29T09:30:10.159Z,26.37
2018-06-29T09:31:10.114Z,26.38
2018-06-29T09:32:10.071Z,26.28
2018-06-29T09:33:10.060Z,26.28
2018-06-29T09:34:09.990Z,26.28
2018-06-29T09:35:09.952Z,26.18
2018-06-29T09:36:09.913Z,26.16
2018-06-29T09:37:09.869Z,26.15
2018-06-29T09:38:09.855Z,26.19
2018-06-29T09:39:09.788Z,26.23
2018-06-29T09:40:09.751Z,26.23
2018-06-29T09:41:09.709Z,26.22
2018-06-29T09:42:09.665Z,26.15
2018-06-29T09:43:09.647Z,26.12
2018-06-29T09:44:09.586Z,26.15
2018-06-29T09:45:09.549Z,26.15
2018-06-29T09:46:09.507Z,26.07
2018-06-29T09:47:09.462Z,25.85
2018-06-29T09:48:09.648Z,25.90
2018-06-29T09:49:09.382Z,25.97
2018-06-29T09:50:09.341Z,26.04
2018-06-29T09:51:09.306Z,25.99
2018-06-29T09:52:09.255Z,25.99
2018-06-29T09:53:09.240Z,26.11
2018-06-29T09:54:09.183Z,26.28
2018-06-29T09:55:09.137Z,26.40
2018-06-29T09:56:09.095Z,26.44
2018-06-29T09:57:09.056Z,26.57
2018-06-29T09:58:09.034Z,26.62
2018-06-29T09:59:08.971Z,26.72
2018-06-29T10:00:08.932Z,26.78
2018-06-29T10:01:08.950Z,26.82
2018-06-29T10:02:08.847Z,26.81
2018-06-29T10:03:08.831Z,26.86
2018-06-29T10:04:08.768Z,26.96
2018-06-29T10:05:08.725Z,27.02
2018-06-29T10:06:08.685Z,26.85
2018-06-29T10:07:08.648Z,27.00
2018-06-29T10:08:08.628Z,26.92
2018-06-29T10:09:08.564Z,27.00
2018-06-29T10:10:08.527Z,27.12
2018-06-29T10:11:08.488Z,27.12
2018-06-29T10:12:08.448Z,27.22
2018-06-29T10:13:08.439Z,27.29
2018-06-29T10:14:08.429Z,27.15
2018-06-29T10:15:08.329Z,27.18
2018-06-29T10:16:08.284Z,27.18
2018-06-29T10:17:08.247Z,27.02
2018-06-29T10:18:08.229Z,26.97
2018-06-29T10:19:08.158Z,27.05
2018-06-29T10:20:08.239Z,27.07
2018-06-29T10:21:08.086Z,27.15
2018-06-29T10:22:08.103Z,27.05
2018-06-29T10:23:08.026Z,27.04
2018-06-29T10:24:07.979Z,26.97
2018-06-29T10:25:07.979Z,27.00
2018-06-29T10:26:07.883Z,26.93
2018-06-29T10:27:07.842Z,26.97
2018-06-29T10:28:07.889Z,27.00
2018-06-29T10:29:07.767Z,27.05
2018-06-29T10:30:07.724Z,27.02
2018-06-29T10:31:07.687Z,27.05
2018-06-29T10:32:07.638Z,27.02
2018-06-29T10:33:07.627Z,27.04
2018-06-29T10:34:07.567Z,27.04
2018-06-29T10:35:07.523Z,27.14
2018-06-29T10:36:07.529Z,27.26
2018-06-29T10:37:07.443Z,27.29
2018-06-29T10:38:07.426Z,27.42
2018-06-29T10:39:07.365Z,27.34
2018-06-29T10:40:07.323Z,27.41
2018-06-29T10:41:07.282Z,27.39
2018-06-29T10:42:07.241Z,27.39
2018-06-29T10:43:07.227Z,27.42
2018-06-29T10:44:07.164Z,27.48
2018-06-29T10:45:07.130Z,27.52
2018-06-29T10:46:07.085Z,27.62
2018-06-29T10:47:07.051Z,27.54
2018-06-29T10:48:07.030Z,27.34
2018-06-29T10:49:06.969Z,27.30
2018-06-29T10:50:06.925Z,27.41
2018-06-29T10:51:06.886Z,27.34
2018-06-29T10:52:06.855Z,27.46
2018-06-29T10:53:06.838Z,27.45
2018-06-29T10:54:06.772Z,27.34
2018-06-29T10:55:06.729Z,27.29
2018-06-29T10:56:06.691Z,27.18
2018-06-29T10:57:06.646Z,27.11
2018-06-29T10:58:06.636Z,26.96
2018-06-29T10:59:06.566Z,27.00
2018-06-29T11:00:06.528Z,26.93
2018-06-29T11:01:06.493Z,26.81
2018-06-29T11:02:06.451Z,26.87
2018-06-29T11:03:06.424Z,26.92
2018-06-29T11:04:06.392Z,27.07
2018-06-29T11:05:06.331Z,27.15
2018-06-29T11:06:06.290Z,27.04
2018-06-29T11:07:06.252Z,27.14
2018-06-29T11:08:06.209Z,27.09
2018-06-29T11:09:06.194Z,27.11
2018-06-29T11:10:06.129Z,27.05
2018-06-29T11:11:06.092Z,26.95
2018-06-29T11:12:06.050Z,27.00
2018-06-29T11:13:06.031Z,27.02
2018-06-29T11:14:05.990Z,27.07
2018-06-29T11:15:05.932Z,27.17
2018-06-29T11:16:05.889Z,27.00
2018-06-29T11:17:05.852Z,26.92
2018-06-29T11:18:05.816Z,26.95
2018-06-29T11:19:05.795Z,26.74
2018-06-29T11:20:05.733Z,26.71
2018-06-29T11:21:05.690Z,26.81
2018-06-29T11:22:05.649Z,26.90
2018-06-29T11:23:05.611Z,27.00
2018-06-29T11:24:05.596Z,26.90
2018-06-29T11:25:05.529Z,26.90
2018-06-29T11:26:05.487Z,26.89
2018-06-29T11:27:05.447Z,26.89
2018-06-29T11:28:05.412Z,26.90
2018-06-29T11:29:05.392Z,26.87
2018-06-29T11:30:05.344Z,26.81
2018-06-29T11:31:05.287Z,26.81
2018-06-29T11:32:05.245Z,26.78
2018-06-29T11:33:05.204Z,26.78
2018-06-29T11:34:05.191Z,26.89
2018-06-29T11:35:05.126Z,26.96
2018-06-29T11:36:05.095Z,26.82
2018-06-29T11:37:05.047Z,26.89
2018-06-29T11:38:05.004Z,27.05
2018-06-29T11:39:04.986Z,27.05
2018-06-29T11:40:04.924Z,27.05
2018-06-29T11:41:04.898Z,27.07
2018-06-29T11:42:04.846Z,26.95
2018-06-29T11:43:04.807Z,26.87
2018-06-29T11:44:04.800Z,26.71
2018-06-29T11:45:04.720Z,26.87
2018-06-29T11:46:04.684Z,26.90
2018-06-29T11:47:04.634Z,26.82
2018-06-29T11:48:04.599Z,26.89
2018-06-29T11:49:04.588Z,27.02
2018-06-29T11:50:04.521Z,26.97
2018-06-29T11:51:04.478Z,26.87
2018-06-29T11:52:04.437Z,27.02
2018-06-29T11:53:04.397Z,26.95
2018-06-29T11:54:04.395Z,26.87
2018-06-29T11:55:04.316Z,26.85
2018-06-29T11:56:04.284Z,26.86
2018-06-29T11:57:04.236Z,26.85
2018-06-29T11:58:04.192Z,26.74
2018-06-29T11:59:04.176Z,26.72
2018-06-29T12:00:04.111Z,26.70
2018-06-29T12:01:04.074Z,26.81
2018-06-29T12:02:04.031Z,26.81
2018-06-29T12:03:03.989Z,26.75
2018-06-29T12:04:03.970Z,26.80
2018-06-29T12:05:03.909Z,26.71
2018-06-29T12:06:03.870Z,26.71
2018-06-29T12:07:03.835Z,26.78
2018-06-29T12:08:03.790Z,26.77
2018-06-29T12:09:03.767Z,26.89
2018-06-29T12:10:03.703Z,26.82
2018-06-29T12:11:03.662Z,26.90
2018-06-29T12:12:03.623Z,26.95
2018-06-29T12:13:03.583Z,27.07
2018-06-29T12:14:03.564Z,27.02
2018-06-29T12:15:03.511Z,27.14
2018-06-29T12:16:03.456Z,27.12
2018-06-29T12:17:03.422Z,27.22
2018-06-29T12:18:03.376Z,27.00
2018-06-29T12:19:03.364Z,26.97
2018-06-29T12:20:03.297Z,26.89
2018-06-29T12:21:03.260Z,26.90
2018-06-29T12:22:03.216Z,26.81
2018-06-29T12:23:03.176Z,26.85
2018-06-29T12:24:03.158Z,26.85
2018-06-29T12:25:03.097Z,26.87
2018-06-29T12:26:03.052Z,26.97
2018-06-29T12:27:03.010Z,27.02
2018-06-29T12:28:03.001Z,27.08
2018-06-29T12:29:02.956Z,27.04
2018-06-29T12:30:02.888Z,27.11
2018-06-29T12:31:02.853Z,27.02
2018-06-29T12:32:02.804Z,27.05
2018-06-29T12:33:02.768Z,27.02
2018-06-29T12:34:02.721Z,27.04
2018-06-29T12:35:02.710Z,27.04
2018-06-29T12:36:02.645Z,27.07
2018-06-29T12:37:02.603Z,27.08
2018-06-29T12:38:02.608Z,27.08
2018-06-29T12:39:02.520Z,27.08
2018-06-29T12:40:02.507Z,27.00
2018-06-29T12:41:02.438Z,26.86
2018-06-29T12:42:02.400Z,26.86
2018-06-29T12:43:02.356Z,26.92
2018-06-29T12:44:02.312Z,26.87
2018-06-29T12:45:02.306Z,27.07
2018-06-29T12:46:02.271Z,27.15
2018-06-29T12:47:02.190Z,27.15
2018-06-29T12:48:02.149Z,27.33
2018-06-29T12:49:02.111Z,27.26
2018-06-29T12:50:02.094Z,27.29
2018-06-29T12:51:02.032Z,27.26
2018-06-29T12:52:01.995Z,27.33
2018-06-29T12:53:01.948Z,27.34